sensor_id;sensor_type;location;lat;lon;timestamp;temperature;humidity
47310;DHT22;33046;52.270;6.832;2023-03-14T00:00:25;13.40;99.90
47310;DHT22;33046;52.270;6.832;2023-03-14T00:02:33;13.40;99.90
47310;DHT22;33046;52.270;6.832;2023-03-14T00:04:40;13.40;99.90
47310;DHT22;33046;52.270;6.832;2023-03-14T00:06:47;13.40;99.90
47310;DHT22;33046;52.270;6.832;2023-03-14T00:08:53;13.40;99.90
47310;DHT22;33046;52.270;6.832;2023-03-14T00:11:04;13.40;99.90
47310;DHT22;33046;52.270;6.832;2023-03-14T00:13:11;13.30;99.90
47310;DHT22;33046;52.270;6.832;2023-03-14T00:15:18;13.40;99.90
47310;DHT22;33046;52.270;6.832;2023-03-14T00:17:25;13.30;99.90
47310;DHT22;33046;52.270;6.832;2023-03-14T00:19:33;13.30;99.90
47310;DHT22;33046;52.270;6.832;2023-03-14T00:21:40;13.30;99.90
47310;DHT22;33046;52.270;6.832;2023-03-14T00:23:47;13.30;99.90
47310;DHT22;33046;52.270;6.832;2023-03-14T00:25:57;13.30;99.90
47310;DHT22;33046;52.270;6.832;2023-03-14T00:28:04;13.30;99.90
47310;DHT22;33046;52.270;6.832;2023-03-14T00:30:11;13.30;99.90
47310;DHT22;33046;52.270;6.832;2023-03-14T00:32:19;13.30;99.90
47310;DHT22;33046;52.270;6.832;2023-03-14T00:34:28;13.30;99.90
47310;DHT22;33046;52.270;6.832;2023-03-14T00:36:36;13.30;99.90
47310;DHT22;33046;52.270;6.832;2023-03-14T00:38:46;13.30;99.90
47310;DHT22;33046;52.270;6.832;2023-03-14T00:40:53;13.30;99.90
47310;DHT22;33046;52.270;6.832;2023-03-14T00:43:00;13.30;99.90
47310;DHT22;33046;52.270;6.832;2023-03-14T00:45:08;13.30;99.90
47310;DHT22;33046;52.270;6.832;2023-03-14T00:47:15;13.30;99.90
47310;DHT22;33046;52.270;6.832;2023-03-14T00:49:22;13.30;99.90
47310;DHT22;33046;52.270;6.832;2023-03-14T00:51:30;13.30;99.90
47310;DHT22;33046;52.270;6.832;2023-03-14T00:53:39;13.30;99.90
47310;DHT22;33046;52.270;6.832;2023-03-14T00:55:46;13.30;99.90
47310;DHT22;33046;52.270;6.832;2023-03-14T00:57:53;13.30;99.90
47310;DHT22;33046;52.270;6.832;2023-03-14T00:59:59;13.30;99.90
47310;DHT22;33046;52.270;6.832;2023-03-14T01:02:06;13.30;99.90
47310;DHT22;33046;52.270;6.832;2023-03-14T01:04:13;13.30;99.90
47310;DHT22;33046;52.270;6.832;2023-03-14T01:06:23;13.30;99.90
47310;DHT22;33046;52.270;6.832;2023-03-14T01:08:30;13.30;99.90
47310;DHT22;33046;52.270;6.832;2023-03-14T01:10:39;13.20;99.90
47310;DHT22;33046;52.270;6.832;2023-03-14T01:12:46;13.30;99.90
47310;DHT22;33046;52.270;6.832;2023-03-14T01:14:53;13.30;99.90
47310;DHT22;33046;52.270;6.832;2023-03-14T01:17:00;13.20;99.90
47310;DHT22;33046;52.270;6.832;2023-03-14T01:19:07;13.20;99.90
47310;DHT22;33046;52.270;6.832;2023-03-14T01:21:16;13.20;99.90
47310;DHT22;33046;52.270;6.832;2023-03-14T01:23:23;13.20;99.90
47310;DHT22;33046;52.270;6.832;2023-03-14T01:25:30;13.20;99.90
47310;DHT22;33046;52.270;6.832;2023-03-14T01:27:38;13.20;99.90
47310;DHT22;33046;52.270;6.832;2023-03-14T01:29:46;13.20;99.90
47310;DHT22;33046;52.270;6.832;2023-03-14T01:31:53;13.20;99.90
47310;DHT22;33046;52.270;6.832;2023-03-14T01:34:00;13.20;99.90
47310;DHT22;33046;52.270;6.832;2023-03-14T01:36:08;13.20;99.90
47310;DHT22;33046;52.270;6.832;2023-03-14T01:38:16;13.20;99.90
47310;DHT22;33046;52.270;6.832;2023-03-14T01:40:22;13.20;99.90
47310;DHT22;33046;52.270;6.832;2023-03-14T01:42:29;13.10;99.90
47310;DHT22;33046;52.270;6.832;2023-03-14T01:44:52;13.10;99.90
47310;DHT22;33046;52.270;6.832;2023-03-14T01:46:59;13.10;99.90
47310;DHT22;33046;52.270;6.832;2023-03-14T01:49:24;13.10;99.90
47310;DHT22;33046;52.270;6.832;2023-03-14T01:51:50;13.10;99.90
47310;DHT22;33046;52.270;6.832;2023-03-14T01:54:04;13.10;99.90
47310;DHT22;33046;52.270;6.832;2023-03-14T01:56:14;13.10;99.90
47310;DHT22;33046;52.270;6.832;2023-03-14T01:58:23;13.10;99.90
47310;DHT22;33046;52.270;6.832;2023-03-14T02:00:32;13.10;99.90
47310;DHT22;33046;52.270;6.832;2023-03-14T02:02:41;13.00;99.90
47310;DHT22;33046;52.270;6.832;2023-03-14T02:04:48;13.00;99.90
47310;DHT22;33046;52.270;6.832;2023-03-14T02:07:03;13.00;99.90
47310;DHT22;33046;52.270;6.832;2023-03-14T02:09:18;13.00;99.90
47310;DHT22;33046;52.270;6.832;2023-03-14T02:11:28;13.00;99.90
47310;DHT22;33046;52.270;6.832;2023-03-14T02:13:45;13.00;99.90
47310;DHT22;33046;52.270;6.832;2023-03-14T02:16:07;13.00;99.90
47310;DHT22;33046;52.270;6.832;2023-03-14T02:18:34;13.00;99.90
47310;DHT22;33046;52.270;6.832;2023-03-14T02:21:05;13.00;99.90
47310;DHT22;33046;52.270;6.832;2023-03-14T02:23:19;13.00;99.90
47310;DHT22;33046;52.270;6.832;2023-03-14T02:25:34;12.90;99.90
47310;DHT22;33046;52.270;6.832;2023-03-14T02:27:47;13.00;99.90
47310;DHT22;33046;52.270;6.832;2023-03-14T02:29:57;13.00;99.90
47310;DHT22;33046;52.270;6.832;2023-03-14T02:32:06;12.90;99.90
47310;DHT22;33046;52.270;6.832;2023-03-14T02:34:13;13.00;99.90
47310;DHT22;33046;52.270;6.832;2023-03-14T02:36:21;12.90;99.90
47310;DHT22;33046;52.270;6.832;2023-03-14T02:38:33;12.90;99.90
47310;DHT22;33046;52.270;6.832;2023-03-14T02:40:42;12.90;99.90
47310;DHT22;33046;52.270;6.832;2023-03-14T02:42:50;12.90;99.90
47310;DHT22;33046;52.270;6.832;2023-03-14T02:45:25;12.90;99.90
47310;DHT22;33046;52.270;6.832;2023-03-14T02:47:30;12.80;99.90
47310;DHT22;33046;52.270;6.832;2023-03-14T02:49:38;12.90;99.90
47310;DHT22;33046;52.270;6.832;2023-03-14T02:51:45;12.80;99.90
47310;DHT22;33046;52.270;6.832;2023-03-14T02:53:53;12.80;99.90
47310;DHT22;33046;52.270;6.832;2023-03-14T02:56:02;12.80;99.90
47310;DHT22;33046;52.270;6.832;2023-03-14T02:58:12;12.80;99.90
47310;DHT22;33046;52.270;6.832;2023-03-14T03:00:21;12.80;99.90
47310;DHT22;33046;52.270;6.832;2023-03-14T03:02:28;12.80;99.90
47310;DHT22;33046;52.270;6.832;2023-03-14T03:04:34;12.80;99.90
47310;DHT22;33046;52.270;6.832;2023-03-14T03:06:41;12.80;99.90
47310;DHT22;33046;52.270;6.832;2023-03-14T03:08:48;12.80;99.90
47310;DHT22;33046;52.270;6.832;2023-03-14T03:10:56;12.70;99.90
47310;DHT22;33046;52.270;6.832;2023-03-14T03:13:04;12.70;99.90
47310;DHT22;33046;52.270;6.832;2023-03-14T03:15:12;12.70;99.90
47310;DHT22;33046;52.270;6.832;2023-03-14T03:17:19;12.70;99.90
47310;DHT22;33046;52.270;6.832;2023-03-14T03:19:26;12.70;99.90
47310;DHT22;33046;52.270;6.832;2023-03-14T03:21:33;12.70;99.90
47310;DHT22;33046;52.270;6.832;2023-03-14T03:23:40;12.60;99.90
47310;DHT22;33046;52.270;6.832;2023-03-14T03:25:50;12.70;99.90
47310;DHT22;33046;52.270;6.832;2023-03-14T03:27:57;12.60;99.90
47310;DHT22;33046;52.270;6.832;2023-03-14T03:30:06;12.60;99.90
47310;DHT22;33046;52.270;6.832;2023-03-14T03:32:15;12.60;99.90
47310;DHT22;33046;52.270;6.832;2023-03-14T03:34:23;12.60;99.90
47310;DHT22;33046;52.270;6.832;2023-03-14T03:36:32;12.50;99.90
47310;DHT22;33046;52.270;6.832;2023-03-14T03:38:39;12.50;99.90
47310;DHT22;33046;52.270;6.832;2023-03-14T03:40:46;12.50;99.90
47310;DHT22;33046;52.270;6.832;2023-03-14T03:42:53;12.50;99.90
47310;DHT22;33046;52.270;6.832;2023-03-14T03:45:01;12.50;99.90
47310;DHT22;33046;52.270;6.832;2023-03-14T03:47:09;12.40;99.90
47310;DHT22;33046;52.270;6.832;2023-03-14T03:49:17;12.40;99.90
47310;DHT22;33046;52.270;6.832;2023-03-14T03:51:24;12.40;99.90
47310;DHT22;33046;52.270;6.832;2023-03-14T03:53:32;12.40;99.90
47310;DHT22;33046;52.270;6.832;2023-03-14T03:55:43;12.40;99.90
47310;DHT22;33046;52.270;6.832;2023-03-14T03:57:51;12.40;99.90
47310;DHT22;33046;52.270;6.832;2023-03-14T03:59:58;12.30;99.90
47310;DHT22;33046;52.270;6.832;2023-03-14T04:02:07;12.40;99.90
47310;DHT22;33046;52.270;6.832;2023-03-14T04:04:14;12.30;99.90
47310;DHT22;33046;52.270;6.832;2023-03-14T04:06:23;12.30;99.90
47310;DHT22;33046;52.270;6.832;2023-03-14T04:08:33;12.30;99.90
47310;DHT22;33046;52.270;6.832;2023-03-14T04:10:40;12.30;99.90
47310;DHT22;33046;52.270;6.832;2023-03-14T04:12:55;12.30;99.90
47310;DHT22;33046;52.270;6.832;2023-03-14T04:15:05;12.30;99.90
47310;DHT22;33046;52.270;6.832;2023-03-14T04:17:13;12.30;99.90
47310;DHT22;33046;52.270;6.832;2023-03-14T04:19:21;12.20;99.90
47310;DHT22;33046;52.270;6.832;2023-03-14T04:21:30;12.20;99.90
47310;DHT22;33046;52.270;6.832;2023-03-14T04:23:37;12.30;99.90
47310;DHT22;33046;52.270;6.832;2023-03-14T04:25:44;12.20;99.90
47310;DHT22;33046;52.270;6.832;2023-03-14T04:27:51;12.20;99.90
47310;DHT22;33046;52.270;6.832;2023-03-14T04:30:03;12.20;99.90
47310;DHT22;33046;52.270;6.832;2023-03-14T04:32:30;12.20;99.90
47310;DHT22;33046;52.270;6.832;2023-03-14T04:34:38;12.20;99.90
47310;DHT22;33046;52.270;6.832;2023-03-14T04:36:47;12.20;99.90
47310;DHT22;33046;52.270;6.832;2023-03-14T04:38:58;12.20;99.90
47310;DHT22;33046;52.270;6.832;2023-03-14T04:41:05;12.10;99.90
47310;DHT22;33046;52.270;6.832;2023-03-14T04:43:14;12.10;99.90
47310;DHT22;33046;52.270;6.832;2023-03-14T04:45:27;12.10;99.90
47310;DHT22;33046;52.270;6.832;2023-03-14T04:47:36;12.10;99.90
47310;DHT22;33046;52.270;6.832;2023-03-14T04:49:43;12.10;99.90
47310;DHT22;33046;52.270;6.832;2023-03-14T04:51:54;12.10;99.90
47310;DHT22;33046;52.270;6.832;2023-03-14T04:54:04;12.10;99.90
47310;DHT22;33046;52.270;6.832;2023-03-14T04:56:11;12.10;99.90
47310;DHT22;33046;52.270;6.832;2023-03-14T04:58:19;12.10;99.90
47310;DHT22;33046;52.270;6.832;2023-03-14T05:00:28;12.10;99.90
47310;DHT22;33046;52.270;6.832;2023-03-14T05:02:48;12.10;99.90
47310;DHT22;33046;52.270;6.832;2023-03-14T05:05:12;12.00;99.90
47310;DHT22;33046;52.270;6.832;2023-03-14T05:07:41;12.10;99.90
47310;DHT22;33046;52.270;6.832;2023-03-14T05:10:07;12.10;99.90
47310;DHT22;33046;52.270;6.832;2023-03-14T05:12:43;12.00;99.90
47310;DHT22;33046;52.270;6.832;2023-03-14T05:15:19;12.10;99.90
47310;DHT22;33046;52.270;6.832;2023-03-14T05:17:44;12.00;99.90
47310;DHT22;33046;52.270;6.832;2023-03-14T05:20:20;12.10;99.90
47310;DHT22;33046;52.270;6.832;2023-03-14T05:22:44;12.10;99.90
47310;DHT22;33046;52.270;6.832;2023-03-14T05:25:02;12.00;99.90
47310;DHT22;33046;52.270;6.832;2023-03-14T05:27:15;12.00;99.90
47310;DHT22;33046;52.270;6.832;2023-03-14T05:30:00;12.00;99.90
47310;DHT22;33046;52.270;6.832;2023-03-14T05:32:33;12.00;99.90
47310;DHT22;33046;52.270;6.832;2023-03-14T05:35:09;12.00;99.90
47310;DHT22;33046;52.270;6.832;2023-03-14T05:37:22;12.00;99.90
47310;DHT22;33046;52.270;6.832;2023-03-14T05:39:59;12.00;99.90
47310;DHT22;33046;52.270;6.832;2023-03-14T05:42:16;12.00;99.90
47310;DHT22;33046;52.270;6.832;2023-03-14T05:44:46;12.00;99.90
47310;DHT22;33046;52.270;6.832;2023-03-14T05:47:15;12.00;99.90
47310;DHT22;33046;52.270;6.832;2023-03-14T05:49:54;12.00;99.90
47310;DHT22;33046;52.270;6.832;2023-03-14T05:52:15;12.00;99.90
47310;DHT22;33046;52.270;6.832;2023-03-14T05:54:41;12.00;99.90
47310;DHT22;33046;52.270;6.832;2023-03-14T05:57:03;12.00;99.90
47310;DHT22;33046;52.270;6.832;2023-03-14T05:59:30;12.00;99.90
47310;DHT22;33046;52.270;6.832;2023-03-14T06:01:55;12.00;99.90
47310;DHT22;33046;52.270;6.832;2023-03-14T06:04:06;12.00;99.90
47310;DHT22;33046;52.270;6.832;2023-03-14T06:06:13;12.00;99.90
47310;DHT22;33046;52.270;6.832;2023-03-14T06:08:20;12.00;99.90
47310;DHT22;33046;52.270;6.832;2023-03-14T06:10:27;12.00;99.90
47310;DHT22;33046;52.270;6.832;2023-03-14T06:12:35;12.00;99.90
47310;DHT22;33046;52.270;6.832;2023-03-14T06:14:42;12.00;99.90
47310;DHT22;33046;52.270;6.832;2023-03-14T06:16:49;12.00;99.90
47310;DHT22;33046;52.270;6.832;2023-03-14T06:18:56;12.00;99.90
47310;DHT22;33046;52.270;6.832;2023-03-14T06:21:04;12.00;99.90
47310;DHT22;33046;52.270;6.832;2023-03-14T06:23:11;12.00;99.90
47310;DHT22;33046;52.270;6.832;2023-03-14T06:25:18;12.00;99.90
47310;DHT22;33046;52.270;6.832;2023-03-14T06:27:27;12.00;99.90
47310;DHT22;33046;52.270;6.832;2023-03-14T06:29:37;12.10;99.90
47310;DHT22;33046;52.270;6.832;2023-03-14T06:31:43;12.10;99.90
47310;DHT22;33046;52.270;6.832;2023-03-14T06:33:54;12.10;99.90
47310;DHT22;33046;52.270;6.832;2023-03-14T06:36:02;12.10;99.90
47310;DHT22;33046;52.270;6.832;2023-03-14T06:38:10;12.10;99.90
47310;DHT22;33046;52.270;6.832;2023-03-14T06:40:17;12.10;99.90
47310;DHT22;33046;52.270;6.832;2023-03-14T06:42:45;12.20;99.90
47310;DHT22;33046;52.270;6.832;2023-03-14T06:44:55;12.20;99.90
47310;DHT22;33046;52.270;6.832;2023-03-14T06:47:04;12.20;99.90
47310;DHT22;33046;52.270;6.832;2023-03-14T06:49:13;12.20;99.90
47310;DHT22;33046;52.270;6.832;2023-03-14T06:51:20;12.20;99.90
47310;DHT22;33046;52.270;6.832;2023-03-14T06:53:29;12.20;99.90
47310;DHT22;33046;52.270;6.832;2023-03-14T06:55:38;12.20;99.90
47310;DHT22;33046;52.270;6.832;2023-03-14T06:57:47;12.20;99.90
47310;DHT22;33046;52.270;6.832;2023-03-14T06:59:55;12.20;99.90
47310;DHT22;33046;52.270;6.832;2023-03-14T07:02:02;12.20;99.90
47310;DHT22;33046;52.270;6.832;2023-03-14T07:04:10;12.20;99.90
47310;DHT22;33046;52.270;6.832;2023-03-14T07:06:20;12.20;99.90
47310;DHT22;33046;52.270;6.832;2023-03-14T07:08:27;12.30;99.90
47310;DHT22;33046;52.270;6.832;2023-03-14T07:10:34;12.30;99.90
47310;DHT22;33046;52.270;6.832;2023-03-14T07:12:41;12.30;99.90
47310;DHT22;33046;52.270;6.832;2023-03-14T07:14:48;12.30;99.90
47310;DHT22;33046;52.270;6.832;2023-03-14T07:16:56;12.30;99.90
47310;DHT22;33046;52.270;6.832;2023-03-14T07:19:03;12.30;99.90
47310;DHT22;33046;52.270;6.832;2023-03-14T07:21:11;12.30;99.90
47310;DHT22;33046;52.270;6.832;2023-03-14T07:23:18;12.30;99.90
47310;DHT22;33046;52.270;6.832;2023-03-14T07:25:28;12.30;99.90
47310;DHT22;33046;52.270;6.832;2023-03-14T07:27:35;12.30;99.90
47310;DHT22;33046;52.270;6.832;2023-03-14T07:29:42;12.30;99.90
47310;DHT22;33046;52.270;6.832;2023-03-14T07:31:49;12.30;99.90
47310;DHT22;33046;52.270;6.832;2023-03-14T07:34:00;12.30;99.90
47310;DHT22;33046;52.270;6.832;2023-03-14T07:36:11;12.40;99.90
47310;DHT22;33046;52.270;6.832;2023-03-14T07:38:21;12.40;99.90
47310;DHT22;33046;52.270;6.832;2023-03-14T07:40:47;12.40;99.90
47310;DHT22;33046;52.270;6.832;2023-03-14T07:42:54;12.40;99.90
47310;DHT22;33046;52.270;6.832;2023-03-14T07:45:07;12.40;99.90
47310;DHT22;33046;52.270;6.832;2023-03-14T07:47:14;12.40;99.90
47310;DHT22;33046;52.270;6.832;2023-03-14T07:49:22;12.40;99.90
47310;DHT22;33046;52.270;6.832;2023-03-14T07:51:29;12.40;99.90
47310;DHT22;33046;52.270;6.832;2023-03-14T07:53:36;12.40;99.90
47310;DHT22;33046;52.270;6.832;2023-03-14T07:55:43;12.40;99.90
47310;DHT22;33046;52.270;6.832;2023-03-14T07:57:49;12.40;99.90
47310;DHT22;33046;52.270;6.832;2023-03-14T07:59:56;12.40;99.90
47310;DHT22;33046;52.270;6.832;2023-03-14T08:02:03;12.40;99.90
47310;DHT22;33046;52.270;6.832;2023-03-14T08:04:10;12.30;99.90
47310;DHT22;33046;52.270;6.832;2023-03-14T08:06:18;12.40;99.90
47310;DHT22;33046;52.270;6.832;2023-03-14T08:08:25;12.40;99.90
47310;DHT22;33046;52.270;6.832;2023-03-14T08:10:32;12.40;99.90
47310;DHT22;33046;52.270;6.832;2023-03-14T08:12:39;12.40;99.90
47310;DHT22;33046;52.270;6.832;2023-03-14T08:14:45;12.40;99.90
47310;DHT22;33046;52.270;6.832;2023-03-14T08:16:52;12.40;99.90
47310;DHT22;33046;52.270;6.832;2023-03-14T08:18:59;12.40;99.90
47310;DHT22;33046;52.270;6.832;2023-03-14T08:21:06;12.40;99.90
47310;DHT22;33046;52.270;6.832;2023-03-14T08:23:14;12.40;99.90
47310;DHT22;33046;52.270;6.832;2023-03-14T08:25:21;12.30;99.90
47310;DHT22;33046;52.270;6.832;2023-03-14T08:27:28;12.10;99.90
47310;DHT22;33046;52.270;6.832;2023-03-14T08:29:35;12.00;99.90
47310;DHT22;33046;52.270;6.832;2023-03-14T08:31:41;11.90;99.90
47310;DHT22;33046;52.270;6.832;2023-03-14T08:33:48;11.90;99.90
47310;DHT22;33046;52.270;6.832;2023-03-14T08:35:56;11.90;99.90
47310;DHT22;33046;52.270;6.832;2023-03-14T08:38:03;11.80;99.90
47310;DHT22;33046;52.270;6.832;2023-03-14T08:40:12;11.70;99.90
47310;DHT22;33046;52.270;6.832;2023-03-14T08:42:19;11.70;99.90
47310;DHT22;33046;52.270;6.832;2023-03-14T08:44:26;11.60;99.90
47310;DHT22;33046;52.270;6.832;2023-03-14T08:46:33;11.60;99.90
47310;DHT22;33046;52.270;6.832;2023-03-14T08:48:40;11.50;99.90
47310;DHT22;33046;52.270;6.832;2023-03-14T08:50:47;11.50;99.90
47310;DHT22;33046;52.270;6.832;2023-03-14T08:52:53;11.50;99.90
47310;DHT22;33046;52.270;6.832;2023-03-14T08:55:00;11.40;99.90
47310;DHT22;33046;52.270;6.832;2023-03-14T08:57:09;11.40;99.90
47310;DHT22;33046;52.270;6.832;2023-03-14T08:59:16;11.30;99.90
47310;DHT22;33046;52.270;6.832;2023-03-14T09:01:22;11.30;99.90
47310;DHT22;33046;52.270;6.832;2023-03-14T09:03:29;11.20;99.90
47310;DHT22;33046;52.270;6.832;2023-03-14T09:05:36;11.00;99.90
47310;DHT22;33046;52.270;6.832;2023-03-14T09:07:43;11.00;99.90
47310;DHT22;33046;52.270;6.832;2023-03-14T09:09:50;10.80;99.90
47310;DHT22;33046;52.270;6.832;2023-03-14T09:11:56;10.60;99.90
47310;DHT22;33046;52.270;6.832;2023-03-14T09:14:05;10.40;99.90
47310;DHT22;33046;52.270;6.832;2023-03-14T09:16:11;10.30;99.90
47310;DHT22;33046;52.270;6.832;2023-03-14T09:18:18;10.10;99.90
47310;DHT22;33046;52.270;6.832;2023-03-14T09:20:25;10.00;99.90
47310;DHT22;33046;52.270;6.832;2023-03-14T09:22:32;10.00;99.90
47310;DHT22;33046;52.270;6.832;2023-03-14T09:24:40;10.10;99.90
47310;DHT22;33046;52.270;6.832;2023-03-14T09:26:47;10.00;99.90
47310;DHT22;33046;52.270;6.832;2023-03-14T09:28:54;9.80;99.90
47310;DHT22;33046;52.270;6.832;2023-03-14T09:31:09;9.90;99.90
47310;DHT22;33046;52.270;6.832;2023-03-14T09:33:16;9.80;99.90
47310;DHT22;33046;52.270;6.832;2023-03-14T09:35:23;9.70;99.90
47310;DHT22;33046;52.270;6.832;2023-03-14T09:37:30;9.70;99.90
47310;DHT22;33046;52.270;6.832;2023-03-14T09:39:37;9.40;99.90
47310;DHT22;33046;52.270;6.832;2023-03-14T09:41:46;9.50;99.90
47310;DHT22;33046;52.270;6.832;2023-03-14T09:44:00;9.30;99.90
47310;DHT22;33046;52.270;6.832;2023-03-14T09:46:11;9.30;99.90
47310;DHT22;33046;52.270;6.832;2023-03-14T09:48:20;9.10;99.90
47310;DHT22;33046;52.270;6.832;2023-03-14T09:50:37;9.20;99.90
47310;DHT22;33046;52.270;6.832;2023-03-14T09:52:47;9.30;99.90
47310;DHT22;33046;52.270;6.832;2023-03-14T09:54:58;9.30;99.90
47310;DHT22;33046;52.270;6.832;2023-03-14T09:57:11;9.40;99.90
47310;DHT22;33046;52.270;6.832;2023-03-14T09:59:19;9.40;99.90
47310;DHT22;33046;52.270;6.832;2023-03-14T10:01:29;9.20;99.90
47310;DHT22;33046;52.270;6.832;2023-03-14T10:03:38;9.30;99.90
47310;DHT22;33046;52.270;6.832;2023-03-14T10:05:45;9.30;99.90
47310;DHT22;33046;52.270;6.832;2023-03-14T10:07:52;9.30;99.90
47310;DHT22;33046;52.270;6.832;2023-03-14T10:09:59;9.20;99.90
47310;DHT22;33046;52.270;6.832;2023-03-14T10:12:08;9.30;99.90
47310;DHT22;33046;52.270;6.832;2023-03-14T10:14:29;9.20;99.90
47310;DHT22;33046;52.270;6.832;2023-03-14T10:16:41;9.00;99.90
47310;DHT22;33046;52.270;6.832;2023-03-14T10:18:48;9.10;99.90
47310;DHT22;33046;52.270;6.832;2023-03-14T10:21:04;9.10;99.90
47310;DHT22;33046;52.270;6.832;2023-03-14T10:23:27;9.00;99.90
47310;DHT22;33046;52.270;6.832;2023-03-14T10:25:36;9.20;99.90
47310;DHT22;33046;52.270;6.832;2023-03-14T10:27:43;9.20;99.90
47310;DHT22;33046;52.270;6.832;2023-03-14T10:29:54;9.20;99.90
47310;DHT22;33046;52.270;6.832;2023-03-14T10:32:10;9.10;99.90
47310;DHT22;33046;52.270;6.832;2023-03-14T10:34:26;9.00;99.90
47310;DHT22;33046;52.270;6.832;2023-03-14T10:36:34;9.10;99.90
47310;DHT22;33046;52.270;6.832;2023-03-14T10:38:41;9.10;99.90
47310;DHT22;33046;52.270;6.832;2023-03-14T10:40:50;9.20;99.90
47310;DHT22;33046;52.270;6.832;2023-03-14T10:42:58;9.00;99.90
47310;DHT22;33046;52.270;6.832;2023-03-14T10:45:25;9.10;99.90
47310;DHT22;33046;52.270;6.832;2023-03-14T10:47:35;9.20;99.90
47310;DHT22;33046;52.270;6.832;2023-03-14T10:49:42;9.40;99.90
47310;DHT22;33046;52.270;6.832;2023-03-14T10:51:49;9.30;99.90
47310;DHT22;33046;52.270;6.832;2023-03-14T10:53:58;9.50;99.90
47310;DHT22;33046;52.270;6.832;2023-03-14T10:56:05;9.70;99.90
47310;DHT22;33046;52.270;6.832;2023-03-14T10:58:23;9.80;99.90
47310;DHT22;33046;52.270;6.832;2023-03-14T11:00:30;9.90;99.90
47310;DHT22;33046;52.270;6.832;2023-03-14T11:02:49;10.00;99.90
47310;DHT22;33046;52.270;6.832;2023-03-14T11:05:06;10.10;99.90
47310;DHT22;33046;52.270;6.832;2023-03-14T11:07:19;10.00;99.90
47310;DHT22;33046;52.270;6.832;2023-03-14T11:09:32;10.00;99.90
47310;DHT22;33046;52.270;6.832;2023-03-14T11:11:46;10.00;99.90
47310;DHT22;33046;52.270;6.832;2023-03-14T11:14:01;10.10;99.90
47310;DHT22;33046;52.270;6.832;2023-03-14T11:16:16;10.20;99.90
47310;DHT22;33046;52.270;6.832;2023-03-14T11:18:51;10.30;99.90
47310;DHT22;33046;52.270;6.832;2023-03-14T11:21:04;10.00;99.90
47310;DHT22;33046;52.270;6.832;2023-03-14T11:23:19;9.50;99.90
47310;DHT22;33046;52.270;6.832;2023-03-14T11:25:32;9.40;99.90
47310;DHT22;33046;52.270;6.832;2023-03-14T11:27:42;9.60;99.90
47310;DHT22;33046;52.270;6.832;2023-03-14T11:29:55;9.60;99.90
47310;DHT22;33046;52.270;6.832;2023-03-14T11:32:12;9.80;99.90
47310;DHT22;33046;52.270;6.832;2023-03-14T11:34:26;9.80;99.90
47310;DHT22;33046;52.270;6.832;2023-03-14T11:36:38;9.90;99.90
47310;DHT22;33046;52.270;6.832;2023-03-14T11:38:48;9.90;99.90
47310;DHT22;33046;52.270;6.832;2023-03-14T11:40:57;9.90;99.90
47310;DHT22;33046;52.270;6.832;2023-03-14T11:43:11;9.90;99.90
47310;DHT22;33046;52.270;6.832;2023-03-14T11:45:22;9.90;99.90
47310;DHT22;33046;52.270;6.832;2023-03-14T11:47:37;9.90;99.90
47310;DHT22;33046;52.270;6.832;2023-03-14T11:49:50;9.90;99.90
47310;DHT22;33046;52.270;6.832;2023-03-14T11:52:00;9.80;99.90
47310;DHT22;33046;52.270;6.832;2023-03-14T11:54:14;9.80;99.90
47310;DHT22;33046;52.270;6.832;2023-03-14T11:56:28;10.00;99.90
47310;DHT22;33046;52.270;6.832;2023-03-14T11:58:38;9.90;99.90
47310;DHT22;33046;52.270;6.832;2023-03-14T12:00:54;10.00;99.90
47310;DHT22;33046;52.270;6.832;2023-03-14T12:03:05;9.90;99.90
47310;DHT22;33046;52.270;6.832;2023-03-14T12:05:52;9.90;98.70
47310;DHT22;33046;52.270;6.832;2023-03-14T12:08:37;9.90;98.60
47310;DHT22;33046;52.270;6.832;2023-03-14T12:10:47;10.00;99.00
47310;DHT22;33046;52.270;6.832;2023-03-14T12:12:55;10.10;99.50
47310;DHT22;33046;52.270;6.832;2023-03-14T12:15:03;10.00;98.70
47310;DHT22;33046;52.270;6.832;2023-03-14T12:17:19;10.00;97.90
47310;DHT22;33046;52.270;6.832;2023-03-14T12:19:32;10.00;97.00
47310;DHT22;33046;52.270;6.832;2023-03-14T12:21:48;10.00;96.10
47310;DHT22;33046;52.270;6.832;2023-03-14T12:23:57;10.10;96.30
47310;DHT22;33046;52.270;6.832;2023-03-14T12:26:15;10.00;95.40
47310;DHT22;33046;52.270;6.832;2023-03-14T12:28:31;10.00;94.90
47310;DHT22;33046;52.270;6.832;2023-03-14T12:30:38;9.90;94.90
47310;DHT22;33046;52.270;6.832;2023-03-14T12:33:20;9.90;94.00
47310;DHT22;33046;52.270;6.832;2023-03-14T12:35:35;10.10;94.70
47310;DHT22;33046;52.270;6.832;2023-03-14T12:37:46;10.10;94.50
47310;DHT22;33046;52.270;6.832;2023-03-14T12:40:03;10.10;95.10
47310;DHT22;33046;52.270;6.832;2023-03-14T12:42:14;10.00;94.70
47310;DHT22;33046;52.270;6.832;2023-03-14T12:44:41;10.10;94.40
47310;DHT22;33046;52.270;6.832;2023-03-14T12:46:48;10.20;93.10
47310;DHT22;33046;52.270;6.832;2023-03-14T12:48:56;10.00;92.70
47310;DHT22;33046;52.270;6.832;2023-03-14T12:51:05;9.80;91.80
47310;DHT22;33046;52.270;6.832;2023-03-14T12:53:42;9.90;92.10
47310;DHT22;33046;52.270;6.832;2023-03-14T12:55:57;9.90;93.00
47310;DHT22;33046;52.270;6.832;2023-03-14T12:58:12;9.90;91.80
47310;DHT22;33046;52.270;6.832;2023-03-14T13:00:23;9.90;91.90
47310;DHT22;33046;52.270;6.832;2023-03-14T13:02:38;9.80;91.20
47310;DHT22;33046;52.270;6.832;2023-03-14T13:04:48;9.70;91.60
47310;DHT22;33046;52.270;6.832;2023-03-14T13:06:57;9.80;90.00
47310;DHT22;33046;52.270;6.832;2023-03-14T13:09:47;9.80;89.30
47310;DHT22;33046;52.270;6.832;2023-03-14T13:12:00;9.70;90.60
47310;DHT22;33046;52.270;6.832;2023-03-14T13:14:10;9.80;91.00
47310;DHT22;33046;52.270;6.832;2023-03-14T13:16:18;9.60;90.00
47310;DHT22;33046;52.270;6.832;2023-03-14T13:18:29;9.60;90.90
47310;DHT22;33046;52.270;6.832;2023-03-14T13:20:44;9.40;90.00
47310;DHT22;33046;52.270;6.832;2023-03-14T13:22:51;9.50;87.20
47310;DHT22;33046;52.270;6.832;2023-03-14T13:25:01;9.60;90.40
47310;DHT22;33046;52.270;6.832;2023-03-14T13:27:16;9.70;90.20
47310;DHT22;33046;52.270;6.832;2023-03-14T13:29:25;9.90;89.60
47310;DHT22;33046;52.270;6.832;2023-03-14T13:31:33;9.90;88.50
47310;DHT22;33046;52.270;6.832;2023-03-14T13:33:40;10.00;89.20
47310;DHT22;33046;52.270;6.832;2023-03-14T13:35:48;9.70;87.20
47310;DHT22;33046;52.270;6.832;2023-03-14T13:37:57;9.50;84.10
47310;DHT22;33046;52.270;6.832;2023-03-14T13:40:25;9.60;83.40
47310;DHT22;33046;52.270;6.832;2023-03-14T13:42:32;9.40;81.70
47310;DHT22;33046;52.270;6.832;2023-03-14T13:44:39;9.50;82.60
47310;DHT22;33046;52.270;6.832;2023-03-14T13:46:46;9.50;82.00
47310;DHT22;33046;52.270;6.832;2023-03-14T13:48:55;9.50;83.70
47310;DHT22;33046;52.270;6.832;2023-03-14T13:51:05;9.50;80.80
47310;DHT22;33046;52.270;6.832;2023-03-14T13:53:12;9.60;78.00